sensor_id;sensor_type;location;lat;lon;timestamp;P1;durP1;ratioP1;P2;durP2;ratioP2
70951;SDS011;69214;55.880;37.542;2023-11-19T00:00:53;0.60;;;0.23;;
70951;SDS011;69214;55.880;37.542;2023-11-19T00:03:19;0.65;;;0.00;;
70951;SDS011;69214;55.880;37.542;2023-11-19T00:05:45;0.32;;;0.03;;
70951;SDS011;69214;55.880;37.542;2023-11-19T00:08:11;0.00;;;0.00;;
70951;SDS011;69214;55.880;37.542;2023-11-19T00:10:37;1.88;;;0.32;;
70951;SDS011;69214;55.880;37.542;2023-11-19T00:13:03;1.90;;;0.30;;
70951;SDS011;69214;55.880;37.542;2023-11-19T00:15:28;1.13;;;0.27;;
70951;SDS011;69214;55.880;37.542;2023-11-19T00:17:54;0.45;;;0.05;;
70951;SDS011;69214;55.880;37.542;2023-11-19T00:20:20;1.60;;;0.43;;
70951;SDS011;69214;55.880;37.542;2023-11-19T00:22:49;1.03;;;0.20;;
70951;SDS011;69214;55.880;37.542;2023-11-19T00:25:18;0.45;;;0.00;;
70951;SDS011;69214;55.880;37.542;2023-11-19T00:27:44;0.40;;;0.03;;
70951;SDS011;69214;55.880;37.542;2023-11-19T00:30:10;0.30;;;0.00;;
70951;SDS011;69214;55.880;37.542;2023-11-19T00:32:36;1.27;;;0.25;;
70951;SDS011;69214;55.880;37.542;2023-11-19T00:35:04;0.87;;;0.10;;
70951;SDS011;69214;55.880;37.542;2023-11-19T00:37:33;2.17;;;0.20;;
70951;SDS011;69214;55.880;37.542;2023-11-19T00:39:59;0.65;;;0.10;;
70951;SDS011;69214;55.880;37.542;2023-11-19T00:42:25;0.53;;;0.10;;
70951;SDS011;69214;55.880;37.542;2023-11-19T00:44:52;1.27;;;0.10;;
70951;SDS011;69214;55.880;37.542;2023-11-19T00:47:18;0.10;;;0.00;;
70951;SDS011;69214;55.880;37.542;2023-11-19T00:49:49;0.20;;;0.10;;
70951;SDS011;69214;55.880;37.542;2023-11-19T00:52:15;1.00;;;0.10;;
70951;SDS011;69214;55.880;37.542;2023-11-19T00:54:42;0.30;;;0.07;;
70951;SDS011;69214;55.880;37.542;2023-11-19T00:57:08;0.00;;;0.00;;
70951;SDS011;69214;55.880;37.542;2023-11-19T00:59:34;0.85;;;0.10;;
70951;SDS011;69214;55.880;37.542;2023-11-19T01:02:00;0.32;;;0.10;;
70951;SDS011;69214;55.880;37.542;2023-11-19T01:04:29;0.57;;;0.10;;
70951;SDS011;69214;55.880;37.542;2023-11-19T01:06:55;0.60;;;0.10;;
70951;SDS011;69214;55.880;37.542;2023-11-19T01:09:21;1.00;;;0.10;;
70951;SDS011;69214;55.880;37.542;2023-11-19T01:11:47;0.40;;;0.00;;
70951;SDS011;69214;55.880;37.542;2023-11-19T01:14:12;0.37;;;0.10;;
70951;SDS011;69214;55.880;37.542;2023-11-19T01:16:38;0.50;;;0.13;;
70951;SDS011;69214;55.880;37.542;2023-11-19T01:19:04;1.30;;;0.10;;
70951;SDS011;69214;55.880;37.542;2023-11-19T01:21:30;0.63;;;0.20;;
70951;SDS011;69214;55.880;37.542;2023-11-19T01:23:59;0.82;;;0.10;;
70951;SDS011;69214;55.880;37.542;2023-11-19T01:26:25;0.50;;;0.00;;
70951;SDS011;69214;55.880;37.542;2023-11-19T01:28:52;0.20;;;0.00;;
70951;SDS011;69214;55.880;37.542;2023-11-19T01:31:18;0.33;;;0.20;;
70951;SDS011;69214;55.880;37.542;2023-11-19T01:33:45;0.40;;;0.00;;
70951;SDS011;69214;55.880;37.542;2023-11-19T01:36:15;0.85;;;0.30;;
70951;SDS011;69214;55.880;37.542;2023-11-19T01:38:41;0.52;;;0.20;;
70951;SDS011;69214;55.880;37.542;2023-11-19T01:41:07;0.10;;;0.00;;
70951;SDS011;69214;55.880;37.542;2023-11-19T01:43:37;0.27;;;0.10;;
70951;SDS011;69214;55.880;37.542;2023-11-19T01:46:07;0.60;;;0.20;;
70951;SDS011;69214;55.880;37.542;2023-11-19T01:48:37;1.63;;;0.25;;
70951;SDS011;69214;55.880;37.542;2023-11-19T01:51:08;0.10;;;0.00;;
70951;SDS011;69214;55.880;37.542;2023-11-19T01:53:35;0.55;;;0.13;;
70951;SDS011;69214;55.880;37.542;2023-11-19T01:56:04;0.17;;;0.00;;
70951;SDS011;69214;55.880;37.542;2023-11-19T01:58:36;0.75;;;0.10;;
70951;SDS011;69214;55.880;37.542;2023-11-19T02:01:02;0.40;;;0.00;;
70951;SDS011;69214;55.880;37.542;2023-11-19T02:03:33;0.65;;;0.10;;
70951;SDS011;69214;55.880;37.542;2023-11-19T02:06:01;0.60;;;0.10;;
70951;SDS011;69214;55.880;37.542;2023-11-19T02:08:29;0.17;;;0.10;;
70951;SDS011;69214;55.880;37.542;2023-11-19T02:10:55;0.00;;;0.00;;
70951;SDS011;69214;55.880;37.542;2023-11-19T02:13:26;0.20;;;0.00;;
70951;SDS011;69214;55.880;37.542;2023-11-19T02:15:55;0.85;;;0.20;;
70951;SDS011;69214;55.880;37.542;2023-11-19T02:18:22;0.20;;;0.10;;
70951;SDS011;69214;55.880;37.542;2023-11-19T02:20:54;1.37;;;0.13;;
70951;SDS011;69214;55.880;37.542;2023-11-19T02:23:23;0.45;;;0.10;;
70951;SDS011;69214;55.880;37.542;2023-11-19T02:28:27;0.00;;;0.00;;
70951;SDS011;69214;55.880;37.542;2023-11-19T02:30:53;0.75;;;0.15;;
70951;SDS011;69214;55.880;37.542;2023-11-19T02:33:19;0.17;;;0.00;;
70951;SDS011;69214;55.880;37.542;2023-11-19T02:35:45;0.30;;;0.00;;
70951;SDS011;69214;55.880;37.542;2023-11-19T02:38:11;0.63;;;0.10;;
70951;SDS011;69214;55.880;37.542;2023-11-19T02:40:39;1.40;;;0.17;;
70951;SDS011;69214;55.880;37.542;2023-11-19T02:43:05;0.20;;;0.00;;
70951;SDS011;69214;55.880;37.542;2023-11-19T02:45:31;2.50;;;0.20;;
70951;SDS011;69214;55.880;37.542;2023-11-19T02:47:57;0.90;;;0.10;;
70951;SDS011;69214;55.880;37.542;2023-11-19T02:50:23;0.50;;;0.10;;
70951;SDS011;69214;55.880;37.542;2023-11-19T02:52:52;1.25;;;0.20;;
70951;SDS011;69214;55.880;37.542;2023-11-19T02:55:21;1.83;;;0.30;;
70951;SDS011;69214;55.880;37.542;2023-11-19T02:57:49;0.10;;;0.00;;
70951;SDS011;69214;55.880;37.542;2023-11-19T03:00:16;1.20;;;0.20;;
70951;SDS011;69214;55.880;37.542;2023-11-19T03:02:50;1.20;;;0.20;;
70951;SDS011;69214;55.880;37.542;2023-11-19T03:05:30;1.13;;;0.10;;
70951;SDS011;69214;55.880;37.542;2023-11-19T03:07:59;0.57;;;0.00;;
70951;SDS011;69214;55.880;37.542;2023-11-19T03:10:25;1.77;;;0.30;;
70951;SDS011;69214;55.880;37.542;2023-11-19T03:12:51;0.65;;;0.20;;
70951;SDS011;69214;55.880;37.542;2023-11-19T03:15:17;0.70;;;0.10;;
70951;SDS011;69214;55.880;37.542;2023-11-19T03:17:43;1.13;;;0.20;;
70951;SDS011;69214;55.880;37.542;2023-11-19T03:20:10;0.63;;;0.10;;
70951;SDS011;69214;55.880;37.542;2023-11-19T03:22:43;2.38;;;0.30;;
70951;SDS011;69214;55.880;37.542;2023-11-19T03:25:09;0.63;;;0.10;;
70951;SDS011;69214;55.880;37.542;2023-11-19T03:27:36;0.43;;;0.10;;
70951;SDS011;69214;55.880;37.542;2023-11-19T03:30:05;0.80;;;0.10;;
70951;SDS011;69214;55.880;37.542;2023-11-19T03:32:32;0.57;;;0.05;;
70951;SDS011;69214;55.880;37.542;2023-11-19T03:34:58;0.25;;;0.00;;
70951;SDS011;69214;55.880;37.542;2023-11-19T03:37:28;1.17;;;0.15;;
70951;SDS011;69214;55.880;37.542;2023-11-19T03:39:54;0.60;;;0.00;;
70951;SDS011;69214;55.880;37.542;2023-11-19T03:42:21;0.40;;;0.17;;
70951;SDS011;69214;55.880;37.542;2023-11-19T03:44:47;1.00;;;0.30;;
70951;SDS011;69214;55.880;37.542;2023-11-19T03:47:15;2.35;;;0.30;;
70951;SDS011;69214;55.880;37.542;2023-11-19T03:49:41;1.95;;;0.30;;
70951;SDS011;69214;55.880;37.542;2023-11-19T03:52:07;0.73;;;0.10;;
70951;SDS011;69214;55.880;37.542;2023-11-19T03:54:34;1.23;;;0.30;;
70951;SDS011;69214;55.880;37.542;2023-11-19T03:57:01;1.50;;;0.20;;
70951;SDS011;69214;55.880;37.542;2023-11-19T03:59:29;1.90;;;0.20;;
70951;SDS011;69214;55.880;37.542;2023-11-19T04:01:54;0.77;;;0.20;;
70951;SDS011;69214;55.880;37.542;2023-11-19T04:04:22;1.65;;;0.22;;
70951;SDS011;69214;55.880;37.542;2023-11-19T04:06:48;1.02;;;0.10;;
70951;SDS011;69214;55.880;37.542;2023-11-19T04:09:14;0.25;;;0.00;;
70951;SDS011;69214;55.880;37.542;2023-11-19T04:11:39;1.30;;;0.20;;
70951;SDS011;69214;55.880;37.542;2023-11-19T04:14:05;1.42;;;0.20;;
70951;SDS011;69214;55.880;37.542;2023-11-19T04:16:31;2.13;;;0.30;;
70951;SDS011;69214;55.880;37.542;2023-11-19T04:18:57;0.87;;;0.10;;
70951;SDS011;69214;55.880;37.542;2023-11-19T04:21:25;2.97;;;0.30;;
70951;SDS011;69214;55.880;37.542;2023-11-19T04:23:51;1.73;;;0.40;;
70951;SDS011;69214;55.880;37.542;2023-11-19T04:26:17;1.33;;;0.20;;
70951;SDS011;69214;55.880;37.542;2023-11-19T04:28:42;1.97;;;0.50;;
70951;SDS011;69214;55.880;37.542;2023-11-19T04:31:08;1.42;;;0.28;;
70951;SDS011;69214;55.880;37.542;2023-11-19T04:33:34;1.88;;;0.40;;
70951;SDS011;69214;55.880;37.542;2023-11-19T04:36:00;0.60;;;0.10;;
70951;SDS011;69214;55.880;37.542;2023-11-19T04:38:27;2.53;;;0.30;;
70951;SDS011;69214;55.880;37.542;2023-11-19T04:40:53;1.65;;;0.45;;
70951;SDS011;69214;55.880;37.542;2023-11-19T04:43:19;2.38;;;0.20;;
70951;SDS011;69214;55.880;37.542;2023-11-19T04:45:45;0.97;;;0.27;;
70951;SDS011;69214;55.880;37.542;2023-11-19T04:48:11;1.17;;;0.30;;
70951;SDS011;69214;55.880;37.542;2023-11-19T04:50:38;3.53;;;0.22;;
70951;SDS011;69214;55.880;37.542;2023-11-19T04:53:04;1.40;;;0.20;;
70951;SDS011;69214;55.880;37.542;2023-11-19T04:55:30;0.63;;;0.20;;
70951;SDS011;69214;55.880;37.542;2023-11-19T04:57:55;0.98;;;0.22;;
70951;SDS011;69214;55.880;37.542;2023-11-19T05:00:22;1.85;;;0.47;;
70951;SDS011;69214;55.880;37.542;2023-11-19T05:02:47;0.77;;;0.10;;
70951;SDS011;69214;55.880;37.542;2023-11-19T05:05:15;0.73;;;0.20;;
70951;SDS011;69214;55.880;37.542;2023-11-19T05:07:41;1.13;;;0.20;;
70951;SDS011;69214;55.880;37.542;2023-11-19T05:10:07;1.50;;;0.17;;
70951;SDS011;69214;55.880;37.542;2023-11-19T05:12:34;0.50;;;0.10;;
70951;SDS011;69214;55.880;37.542;2023-11-19T05:15:00;0.70;;;0.10;;
70951;SDS011;69214;55.880;37.542;2023-11-19T05:17:26;0.70;;;0.20;;
70951;SDS011;69214;55.880;37.542;2023-11-19T05:19:52;1.38;;;0.35;;
70951;SDS011;69214;55.880;37.542;2023-11-19T05:22:19;1.08;;;0.10;;
70951;SDS011;69214;55.880;37.542;2023-11-19T05:24:46;0.70;;;0.10;;
70951;SDS011;69214;55.880;37.542;2023-11-19T05:27:12;0.35;;;0.10;;
70951;SDS011;69214;55.880;37.542;2023-11-19T05:29:38;0.68;;;0.17;;
70951;SDS011;69214;55.880;37.542;2023-11-19T05:32:05;1.33;;;0.35;;
70951;SDS011;69214;55.880;37.542;2023-11-19T05:34:30;0.73;;;0.10;;
70951;SDS011;69214;55.880;37.542;2023-11-19T05:36:56;1.73;;;0.25;;
70951;SDS011;69214;55.880;37.542;2023-11-19T05:39:23;1.38;;;0.20;;
70951;SDS011;69214;55.880;37.542;2023-11-19T05:41:49;0.82;;;0.10;;
70951;SDS011;69214;55.880;37.542;2023-11-19T05:44:15;0.40;;;0.10;;
70951;SDS011;69214;55.880;37.542;2023-11-19T05:46:42;2.45;;;0.40;;
70951;SDS011;69214;55.880;37.542;2023-11-19T05:49:08;0.80;;;0.28;;
70951;SDS011;69214;55.880;37.542;2023-11-19T05:51:40;1.85;;;0.40;;
70951;SDS011;69214;55.880;37.542;2023-11-19T05:54:07;1.58;;;0.20;;
70951;SDS011;69214;55.880;37.542;2023-11-19T05:56:34;0.77;;;0.17;;
70951;SDS011;69214;55.880;37.542;2023-11-19T05:59:00;2.22;;;0.20;;
70951;SDS011;69214;55.880;37.542;2023-11-19T06:01:26;0.65;;;0.10;;
70951;SDS011;69214;55.880;37.542;2023-11-19T06:03:52;0.63;;;0.10;;
70951;SDS011;69214;55.880;37.542;2023-11-19T06:06:18;1.43;;;0.30;;
70951;SDS011;69214;55.880;37.542;2023-11-19T06:08:45;1.60;;;0.22;;
70951;SDS011;69214;55.880;37.542;2023-11-19T06:11:12;2.25;;;0.40;;
70951;SDS011;69214;55.880;37.542;2023-11-19T06:13:44;1.55;;;0.45;;
70951;SDS011;69214;55.880;37.542;2023-11-19T06:16:10;2.60;;;0.60;;
70951;SDS011;69214;55.880;37.542;2023-11-19T06:18:36;1.85;;;0.60;;
70951;SDS011;69214;55.880;37.542;2023-11-19T06:21:02;2.05;;;0.43;;
70951;SDS011;69214;55.880;37.542;2023-11-19T06:23:28;3.50;;;0.40;;
70951;SDS011;69214;55.880;37.542;2023-11-19T06:25:54;2.10;;;0.43;;
70951;SDS011;69214;55.880;37.542;2023-11-19T06:28:20;3.85;;;0.82;;
70951;SDS011;69214;55.880;37.542;2023-11-19T06:30:47;2.70;;;0.80;;
70951;SDS011;69214;55.880;37.542;2023-11-19T06:33:13;1.70;;;0.57;;
70951;SDS011;69214;55.880;37.542;2023-11-19T06:35:39;2.38;;;0.65;;
70951;SDS011;69214;55.880;37.542;2023-11-19T06:38:05;3.72;;;0.50;;
70951;SDS011;69214;55.880;37.542;2023-11-19T06:40:32;1.67;;;0.32;;
70951;SDS011;69214;55.880;37.542;2023-11-19T06:42:58;3.22;;;0.70;;
70951;SDS011;69214;55.880;37.542;2023-11-19T06:45:24;2.07;;;0.43;;
70951;SDS011;69214;55.880;37.542;2023-11-19T06:47:50;2.33;;;0.50;;
70951;SDS011;69214;55.880;37.542;2023-11-19T06:50:16;2.20;;;0.50;;
70951;SDS011;69214;55.880;37.542;2023-11-19T06:52:42;3.17;;;0.53;;
70951;SDS011;69214;55.880;37.542;2023-11-19T06:55:08;2.03;;;0.52;;
70951;SDS011;69214;55.880;37.542;2023-11-19T06:57:35;2.47;;;0.40;;
70951;SDS011;69214;55.880;37.542;2023-11-19T07:00:01;2.40;;;0.67;;
70951;SDS011;69214;55.880;37.542;2023-11-19T07:02:27;2.92;;;0.50;;
70951;SDS011;69214;55.880;37.542;2023-11-19T07:04:53;2.42;;;0.63;;
70951;SDS011;69214;55.880;37.542;2023-11-19T07:07:20;3.58;;;0.90;;
70951;SDS011;69214;55.880;37.542;2023-11-19T07:09:45;1.27;;;0.30;;
70951;SDS011;69214;55.880;37.542;2023-11-19T07:12:11;2.85;;;0.57;;
70951;SDS011;69214;55.880;37.542;2023-11-19T07:14:38;1.85;;;0.50;;
70951;SDS011;69214;55.880;37.542;2023-11-19T07:17:06;2.70;;;0.73;;
70951;SDS011;69214;55.880;37.542;2023-11-19T07:19:32;3.08;;;0.40;;
70951;SDS011;69214;55.880;37.542;2023-11-19T07:21:58;2.05;;;0.50;;
70951;SDS011;69214;55.880;37.542;2023-11-19T07:24:23;3.87;;;0.97;;
70951;SDS011;69214;55.880;37.542;2023-11-19T07:26:50;4.78;;;0.63;;
70951;SDS011;69214;55.880;37.542;2023-11-19T07:29:15;1.40;;;0.43;;
70951;SDS011;69214;55.880;37.542;2023-11-19T07:31:44;3.73;;;0.67;;
70951;SDS011;69214;55.880;37.542;2023-11-19T07:34:10;1.98;;;0.45;;
70951;SDS011;69214;55.880;37.542;2023-11-19T07:36:37;2.72;;;0.68;;
70951;SDS011;69214;55.880;37.542;2023-11-19T07:39:03;1.85;;;0.47;;
70951;SDS011;69214;55.880;37.542;2023-11-19T07:41:30;2.27;;;0.60;;
70951;SDS011;69214;55.880;37.542;2023-11-19T07:43:56;2.17;;;0.45;;
70951;SDS011;69214;55.880;37.542;2023-11-19T07:46:22;2.33;;;0.63;;
70951;SDS011;69214;55.880;37.542;2023-11-19T07:48:48;2.53;;;0.70;;
70951;SDS011;69214;55.880;37.542;2023-11-19T07:51:14;3.33;;;0.60;;
70951;SDS011;69214;55.880;37.542;2023-11-19T07:53:40;2.53;;;0.68;;
70951;SDS011;69214;55.880;37.542;2023-11-19T07:56:07;4.43;;;0.52;;
70951;SDS011;69214;55.880;37.542;2023-11-19T07:58:33;3.35;;;0.82;;
70951;SDS011;69214;55.880;37.542;2023-11-19T08:01:00;2.33;;;0.80;;
70951;SDS011;69214;55.880;37.542;2023-11-19T08:03:27;2.75;;;0.60;;
70951;SDS011;69214;55.880;37.542;2023-11-19T08:05:55;1.92;;;0.80;;
70951;SDS011;69214;55.880;37.542;2023-11-19T08:08:23;3.70;;;0.90;;
70951;SDS011;69214;55.880;37.542;2023-11-19T08:10:49;2.28;;;0.90;;
70951;SDS011;69214;55.880;37.542;2023-11-19T08:13:19;2.97;;;0.60;;
70951;SDS011;69214;55.880;37.542;2023-11-19T08:15:45;5.40;;;1.60;;
70951;SDS011;69214;55.880;37.542;2023-11-19T08:18:12;5.03;;;1.17;;
70951;SDS011;69214;55.880;37.542;2023-11-19T08:20:39;2.83;;;0.65;;
70951;SDS011;69214;55.880;37.542;2023-11-19T08:23:05;5.10;;;1.33;;
70951;SDS011;69214;55.880;37.542;2023-11-19T08:25:31;5.23;;;1.00;;
70951;SDS011;69214;55.880;37.542;2023-11-19T08:27:59;2.25;;;0.73;;
70951;SDS011;69214;55.880;37.542;2023-11-19T08:30:25;3.80;;;1.27;;
70951;SDS011;69214;55.880;37.542;2023-11-19T08:32:51;6.85;;;1.25;;
70951;SDS011;69214;55.880;37.542;2023-11-19T08:35:17;5.43;;;1.30;;
70951;SDS011;69214;55.880;37.542;2023-11-19T08:37:43;7.15;;;1.10;;
70951;SDS011;69214;55.880;37.542;2023-11-19T08:40:10;4.20;;;1.30;;
70951;SDS011;69214;55.880;37.542;2023-11-19T08:42:37;6.10;;;2.10;;
70951;SDS011;69214;55.880;37.542;2023-11-19T08:45:04;4.87;;;1.47;;
70951;SDS011;69214;55.880;37.542;2023-11-19T08:47:31;4.88;;;1.50;;
70951;SDS011;69214;55.880;37.542;2023-11-19T08:49:57;8.02;;;1.42;;
70951;SDS011;69214;55.880;37.542;2023-11-19T08:52:22;2.90;;;1.20;;
70951;SDS011;69214;55.880;37.542;2023-11-19T08:54:48;8.55;;;2.15;;
70951;SDS011;69214;55.880;37.542;2023-11-19T08:57:14;3.50;;;1.20;;
70951;SDS011;69214;55.880;37.542;2023-11-19T08:59:40;3.33;;;0.80;;
70951;SDS011;69214;55.880;37.542;2023-11-19T09:02:06;4.47;;;1.08;;
70951;SDS011;69214;55.880;37.542;2023-11-19T09:04:32;4.22;;;0.93;;
70951;SDS011;69214;55.880;37.542;2023-11-19T09:06:58;5.68;;;1.55;;
70951;SDS011;69214;55.880;37.542;2023-11-19T09:09:24;4.00;;;0.90;;
70951;SDS011;69214;55.880;37.542;2023-11-19T09:11:50;3.35;;;0.65;;
70951;SDS011;69214;55.880;37.542;2023-11-19T09:14:16;7.18;;;1.20;;
70951;SDS011;69214;55.880;37.542;2023-11-19T09:16:44;3.08;;;1.10;;
70951;SDS011;69214;55.880;37.542;2023-11-19T09:19:10;7.33;;;1.50;;
70951;SDS011;69214;55.880;37.542;2023-11-19T09:21:36;4.90;;;1.23;;
70951;SDS011;69214;55.880;37.542;2023-11-19T09:24:04;3.08;;;1.05;;
70951;SDS011;69214;55.880;37.542;2023-11-19T09:26:30;3.47;;;0.98;;
70951;SDS011;69214;55.880;37.542;2023-11-19T09:28:56;3.55;;;0.90;;
70951;SDS011;69214;55.880;37.542;2023-11-19T09:31:22;4.30;;;0.80;;
70951;SDS011;69214;55.880;37.542;2023-11-19T09:33:48;4.05;;;0.90;;
70951;SDS011;69214;55.880;37.542;2023-11-19T09:36:14;2.42;;;0.65;;
70951;SDS011;69214;55.880;37.542;2023-11-19T09:38:43;4.20;;;0.77;;
70951;SDS011;69214;55.880;37.542;2023-11-19T09:41:09;4.23;;;1.20;;
70951;SDS011;69214;55.880;37.542;2023-11-19T09:43:38;3.72;;;1.00;;
70951;SDS011;69214;55.880;37.542;2023-11-19T09:46:05;3.63;;;0.77;;
70951;SDS011;69214;55.880;37.542;2023-11-19T09:48:32;2.90;;;0.77;;
70951;SDS011;69214;55.880;37.542;2023-11-19T09:51:00;4.53;;;0.68;;
70951;SDS011;69214;55.880;37.542;2023-11-19T09:53:27;2.57;;;0.60;;
70951;SDS011;69214;55.880;37.542;2023-11-19T09:55:53;5.93;;;0.95;;
70951;SDS011;69214;55.880;37.542;2023-11-19T09:58:20;4.07;;;1.00;;
70951;SDS011;69214;55.880;37.542;2023-11-19T10:00:47;4.65;;;1.00;;
70951;SDS011;69214;55.880;37.542;2023-11-19T10:03:13;3.37;;;0.90;;
70951;SDS011;69214;55.880;37.542;2023-11-19T10:05:39;3.35;;;0.93;;
70951;SDS011;69214;55.880;37.542;2023-11-19T10:08:06;3.63;;;1.00;;
70951;SDS011;69214;55.880;37.542;2023-11-19T10:10:33;3.03;;;1.10;;
70951;SDS011;69214;55.880;37.542;2023-11-19T10:13:00;2.90;;;0.90;;
70951;SDS011;69214;55.880;37.542;2023-11-19T10:15:26;4.07;;;0.80;;
70951;SDS011;69214;55.880;37.542;2023-11-19T10:17:56;3.33;;;0.85;;
70951;SDS011;69214;55.880;37.542;2023-11-19T10:20:22;4.80;;;0.90;;
70951;SDS011;69214;55.880;37.542;2023-11-19T10:22:52;2.35;;;0.57;;
70951;SDS011;69214;55.880;37.542;2023-11-19T10:25:25;2.77;;;0.67;;
70951;SDS011;69214;55.880;37.542;2023-11-19T10:27:52;2.35;;;0.60;;
70951;SDS011;69214;55.880;37.542;2023-11-19T10:30:26;2.33;;;0.60;;
70951;SDS011;69214;55.880;37.542;2023-11-19T10:35:32;3.22;;;0.63;;
70951;SDS011;69214;55.880;37.542;2023-11-19T10:38:14;4.60;;;0.90;;
70951;SDS011;69214;55.880;37.542;2023-11-19T10:40:41;1.48;;;0.40;;
70951;SDS011;69214;55.880;37.542;2023-11-19T10:43:07;2.50;;;1.17;;
70951;SDS011;69214;55.880;37.542;2023-11-19T10:45:37;4.60;;;0.82;;
70951;SDS011;69214;55.880;37.542;2023-11-19T10:48:04;4.97;;;0.93;;
70951;SDS011;69214;55.880;37.542;2023-11-19T10:50:36;5.63;;;1.07;;
70951;SDS011;69214;55.880;37.542;2023-11-19T10:53:03;3.80;;;1.02;;
70951;SDS011;69214;55.880;37.542;2023-11-19T10:55:31;2.58;;;0.52;;
70951;SDS011;69214;55.880;37.542;2023-11-19T10:58:01;2.17;;;0.60;;
70951;SDS011;69214;55.880;37.542;2023-11-19T11:00:29;4.43;;;1.20;;
70951;SDS011;69214;55.880;37.542;2023-11-19T11:03:02;4.17;;;1.10;;
70951;SDS011;69214;55.880;37.542;2023-11-19T11:05:41;1.85;;;0.63;;
70951;SDS011;69214;55.880;37.542;2023-11-19T11:08:09;3.72;;;0.95;;
70951;SDS011;69214;55.880;37.542;2023-11-19T11:10:39;3.10;;;0.88;;
70951;SDS011;69214;55.880;37.542;2023-11-19T11:13:08;5.07;;;1.50;;
70951;SDS011;69214;55.880;37.542;2023-11-19T11:15:35;2.87;;;0.80;;
70951;SDS011;69214;55.880;37.542;2023-11-19T11:18:02;3.03;;;1.05;;
70951;SDS011;69214;55.880;37.542;2023-11-19T11:20:29;5.22;;;1.30;;
70951;SDS011;69214;55.880;37.542;2023-11-19T11:23:11;3.33;;;1.00;;
70951;SDS011;69214;55.880;37.542;2023-11-19T11:28:46;4.47;;;0.80;;
70951;SDS011;69214;55.880;37.542;2023-11-19T11:31:31;3.20;;;1.00;;
70951;SDS011;69214;55.880;37.542;2023-11-19T11:39:48;2.83;;;0.85;;
70951;SDS011;69214;55.880;37.542;2023-11-19T11:44:57;3.38;;;0.60;;
70951;SDS011;69214;55.880;37.542;2023-11-19T11:48:04;2.28;;;0.40;;
70951;SDS011;69214;55.880;37.542;2023-11-19T11:50:47;1.42;;;0.40;;
70951;SDS011;69214;55.880;37.542;2023-11-19T11:53:18;3.55;;;0.77;;
70951;SDS011;69214;55.880;37.542;2023-11-19T11:58:36;3.63;;;0.98;;
70951;SDS011;69214;55.880;37.542;2023-11-19T12:01:03;1.80;;;0.60;;
70951;SDS011;69214;55.880;37.542;2023-11-19T12:03:31;3.33;;;1.17;;
70951;SDS011;69214;55.880;37.542;2023-11-19T12:05:58;3.35;;;0.98;;
70951;SDS011;69214;55.880;37.542;2023-11-19T12:08:24;3.80;;;0.97;;
70951;SDS011;69214;55.880;37.542;2023-11-19T12:10:53;3.67;;;0.98;;
70951;SDS011;69214;55.880;37.542;2023-11-19T12:13:26;3.95;;;1.05;;
70951;SDS011;69214;55.880;37.542;2023-11-19T12:16:08;7.50;;;1.40;;
70951;SDS011;69214;55.880;37.542;2023-11-19T12:18:36;3.95;;;1.17;;
70951;SDS011;69214;55.880;37.542;2023-11-19T12:21:04;2.87;;;0.73;;
70951;SDS011;69214;55.880;37.542;2023-11-19T12:23:31;3.75;;;1.05;;
70951;SDS011;69214;55.880;37.542;2023-11-19T12:25:58;2.97;;;0.82;;
70951;SDS011;69214;55.880;37.542;2023-11-19T12:28:24;4.63;;;0.90;;
70951;SDS011;69214;55.880;37.542;2023-11-19T12:30:53;3.72;;;1.25;;
70951;SDS011;69214;55.880;37.542;2023-11-19T12:33:19;3.53;;;0.90;;
70951;SDS011;69214;55.880;37.542;2023-11-19T12:35:46;2.60;;;0.60;;
70951;SDS011;69214;55.880;37.542;2023-11-19T12:38:22;2.28;;;0.93;;
70951;SDS011;69214;55.880;37.542;2023-11-19T12:41:03;2.95;;;0.90;;
70951;SDS011;69214;55.880;37.542;2023-11-19T12:43:34;3.10;;;0.80;;
70951;SDS011;69214;55.880;37.542;2023-11-19T12:46:01;2.50;;;0.53;;
70951;SDS011;69214;55.880;37.542;2023-11-19T12:48:27;2.38;;;0.50;;
70951;SDS011;69214;55.880;37.542;2023-11-19T12:50:54;1.58;;;0.47;;
70951;SDS011;69214;55.880;37.542;2023-11-19T12:53:23;4.20;;;0.80;;
70951;SDS011;69214;55.880;37.542;2023-11-19T12:55:51;2.23;;;0.23;;
70951;SDS011;69214;55.880;37.542;2023-11-19T12:58:33;2.00;;;0.40;;
70951;SDS011;69214;55.880;37.542;2023-11-19T13:01:02;2.72;;;0.50;;
70951;SDS011;69214;55.880;37.542;2023-11-19T13:03:35;2.97;;;0.52;;
70951;SDS011;69214;55.880;37.542;2023-11-19T13:08:42;4.20;;;0.77;;
70951;SDS011;69214;55.880;37.542;2023-11-19T13:11:14;4.10;;;0.88;;
70951;SDS011;69214;55.880;37.542;2023-11-19T13:13:56;1.02;;;0.20;;
70951;SDS011;69214;55.880;37.542;2023-11-19T13:16:23;2.72;;;0.70;;
70951;SDS011;69214;55.880;37.542;2023-11-19T13:18:49;2.42;;;0.50;;
70951;SDS011;69214;55.880;37.542;2023-11-19T13:21:15;2.23;;;0.60;;
70951;SDS011;69214;55.880;37.542;2023-11-19T13:23:41;3.13;;;1.05;;
70951;SDS011;69214;55.880;37.542;2023-11-19T13:26:08;3.88;;;0.80;;
70951;SDS011;69214;55.880;37.542;2023-11-19T13:28:34;3.10;;;0.45;;
70951;SDS011;69214;55.880;37.542;2023-11-19T13:31:00;1.13;;;0.47;;
70951;SDS011;69214;55.880;37.542;2023-11-19T13:33:26;2.30;;;0.57;;
70951;SDS011;69214;55.880;37.542;2023-11-19T13:35:52;2.20;;;0.40;;
70951;SDS011;69214;55.880;37.542;2023-11-19T13:38:19;2.28;;;0.32;;
70951;SDS011;69214;55.880;37.542;2023-11-19T13:40:44;4.97;;;0.47;;
70951;SDS011;69214;55.880;37.542;2023-11-19T13:43:10;2.83;;;0.73;;
70951;SDS011;69214;55.880;37.542;2023-11-19T13:45:37;2.25;;;0.82;;
70951;SDS011;69214;55.880;37.542;2023-11-19T13:48:04;2.60;;;0.60;;
70951;SDS011;69214;55.880;37.542;2023-11-19T13:50:30;3.60;;;1.17;;
70951;SDS011;69214;55.880;37.542;2023-11-19T13:52:57;3.10;;;1.00;;
70951;SDS011;69214;55.880;37.542;2023-11-19T13:55:23;3.15;;;0.38;;
70951;SDS011;69214;55.880;37.542;2023-11-19T13:57:49;2.38;;;0.90;;
70951;SDS011;69214;55.880;37.542;2023-11-19T14:00:15;4.60;;;0.43;;
70951;SDS011;69214;55.880;37.542;2023-11-19T14:02:49;3.08;;;0.80;;
70951;SDS011;69214;55.880;37.542;2023-11-19T14:05:15;6.43;;;0.82;;
70951;SDS011;69214;55.880;37.542;2023-11-19T14:07:44;2.15;;;0.47;;
70951;SDS011;69214;55.880;37.542;2023-11-19T14:10:14;2.03;;;0.88;;
70951;SDS011;69214;55.880;37.542;2023-11-19T14:12:40;2.70;;;0.60;;
70951;SDS011;69214;55.880;37.542;2023-11-19T14:15:08;2.35;;;0.60;;
70951;SDS011;69214;55.880;37.542;2023-11-19T14:17:35;2.97;;;0.98;;
70951;SDS011;69214;55.880;37.542;2023-11-19T14:20:02;4.15;;;0.90;;
70951;SDS011;69214;55.880;37.542;2023-11-19T14:22:48;2.63;;;0.65;;
70951;SDS011;69214;55.880;37.542;2023-11-19T14:25:15;2.37;;;0.63;;
70951;SDS011;69214;55.880;37.542;2023-11-19T14:27:41;2.85;;;0.70;;
70951;SDS011;69214;55.880;37.542;2023-11-19T14:30:09;2.30;;;0.63;;
70951;SDS011;69214;55.880;37.542;2023-11-19T14:32:37;1.48;;;0.30;;
70951;SDS011;69214;55.880;37.542;2023-11-19T14:35:04;2.27;;;0.60;;
70951;SDS011;69214;55.880;37.542;2023-11-19T14:37:30;1.42;;;0.35;;
70951;SDS011;69214;55.880;37.542;2023-11-19T14:39:57;2.50;;;0.60;;
70951;SDS011;69214;55.880;37.542;2023-11-19T14:42:23;2.90;;;0.63;;
70951;SDS011;69214;55.880;37.542;2023-11-19T14:44:50;1.98;;;0.50;;
70951;SDS011;69214;55.880;37.542;2023-11-19T14:47:20;3.40;;;0.60;;
70951;SDS011;69214;55.880;37.542;2023-11-19T14:49:46;3.33;;;1.45;;
70951;SDS011;69214;55.880;37.542;2023-11-19T14:52:15;2.53;;;0.80;;
70951;SDS011;69214;55.880;37.542;2023-11-19T14:54:42;3.08;;;0.73;;
70951;SDS011;69214;55.880;37.542;2023-11-19T14:57:08;5.47;;;1.07;;